sensor_id;sensor_type;location;lat;lon;timestamp;temperature;humidity
72380;SHT30;60354;47.798;12.472;2023-08-12T00:00:01;17.55;82.05
72380;SHT30;60354;47.798;12.472;2023-08-12T00:02:37;17.53;82.00
72380;SHT30;60354;47.798;12.472;2023-08-12T00:05:04;17.50;82.12
72380;SHT30;60354;47.798;12.472;2023-08-12T00:07:30;17.38;82.53
72380;SHT30;60354;47.798;12.472;2023-08-12T00:09:55;17.34;82.51
72380;SHT30;60354;47.798;12.472;2023-08-12T00:12:21;17.24;82.34
72380;SHT30;60354;47.798;12.472;2023-08-12T00:14:47;17.30;82.30
72380;SHT30;60354;47.798;12.472;2023-08-12T00:17:12;17.27;82.14
72380;SHT30;60354;47.798;12.472;2023-08-12T00:19:38;17.26;81.94
72380;SHT30;60354;47.798;12.472;2023-08-12T00:22:03;17.19;82.40
72380;SHT30;60354;47.798;12.472;2023-08-12T00:24:30;17.00;82.39
72380;SHT30;60354;47.798;12.472;2023-08-12T00:26:55;17.05;82.62
72380;SHT30;60354;47.798;12.472;2023-08-12T00:29:22;16.95;82.28
72380;SHT30;60354;47.798;12.472;2023-08-12T00:31:47;16.96;82.26
72380;SHT30;60354;47.798;12.472;2023-08-12T00:34:14;16.97;81.66
72380;SHT30;60354;47.798;12.472;2023-08-12T00:36:39;16.95;82.19
72380;SHT30;60354;47.798;12.472;2023-08-12T00:39:05;16.99;82.19
72380;SHT30;60354;47.798;12.472;2023-08-12T00:41:31;17.02;81.93
72380;SHT30;60354;47.798;12.472;2023-08-12T00:43:56;16.89;82.28
72380;SHT30;60354;47.798;12.472;2023-08-12T00:46:23;16.95;82.72
72380;SHT30;60354;47.798;12.472;2023-08-12T00:48:49;17.07;82.33
72380;SHT30;60354;47.798;12.472;2023-08-12T00:51:16;17.09;82.25
72380;SHT30;60354;47.798;12.472;2023-08-12T00:53:42;17.10;81.47
72380;SHT30;60354;47.798;12.472;2023-08-12T00:56:09;17.07;81.43
72380;SHT30;60354;47.798;12.472;2023-08-12T00:58:35;17.06;81.10
72380;SHT30;60354;47.798;12.472;2023-08-12T01:01:00;17.03;81.05
72380;SHT30;60354;47.798;12.472;2023-08-12T01:03:26;16.89;81.11
72380;SHT30;60354;47.798;12.472;2023-08-12T01:05:51;16.73;81.23
72380;SHT30;60354;47.798;12.472;2023-08-12T01:08:17;16.76;81.49
72380;SHT30;60354;47.798;12.472;2023-08-12T01:10:47;16.78;81.34
72380;SHT30;60354;47.798;12.472;2023-08-12T01:16:14;16.73;82.02
72380;SHT30;60354;47.798;12.472;2023-08-12T01:18:41;16.69;81.78
72380;SHT30;60354;47.798;12.472;2023-08-12T01:21:09;16.68;82.06
72380;SHT30;60354;47.798;12.472;2023-08-12T01:23:37;16.69;81.83
72380;SHT30;60354;47.798;12.472;2023-08-12T01:26:04;16.78;81.77
72380;SHT30;60354;47.798;12.472;2023-08-12T01:28:30;16.80;81.57
72380;SHT30;60354;47.798;12.472;2023-08-12T01:33:39;16.80;81.52
72380;SHT30;60354;47.798;12.472;2023-08-12T01:36:16;16.75;81.69
72380;SHT30;60354;47.798;12.472;2023-08-12T01:38:42;16.72;82.06
72380;SHT30;60354;47.798;12.472;2023-08-12T01:41:10;16.78;82.17
72380;SHT30;60354;47.798;12.472;2023-08-12T01:43:37;16.72;82.39
72380;SHT30;60354;47.798;12.472;2023-08-12T01:46:03;16.68;82.74
72380;SHT30;60354;47.798;12.472;2023-08-12T01:48:28;16.65;82.78
72380;SHT30;60354;47.798;12.472;2023-08-12T01:50:54;16.65;83.12
72380;SHT30;60354;47.798;12.472;2023-08-12T01:53:21;16.64;83.03
72380;SHT30;60354;47.798;12.472;2023-08-12T01:55:49;16.58;83.15
72380;SHT30;60354;47.798;12.472;2023-08-12T01:58:15;16.61;82.80
72380;SHT30;60354;47.798;12.472;2023-08-12T02:00:40;16.69;82.82
72380;SHT30;60354;47.798;12.472;2023-08-12T02:03:06;16.69;82.74
72380;SHT30;60354;47.798;12.472;2023-08-12T02:05:32;16.68;82.64
72380;SHT30;60354;47.798;12.472;2023-08-12T02:07:58;16.59;83.03
72380;SHT30;60354;47.798;12.472;2023-08-12T02:10:24;16.61;83.14
72380;SHT30;60354;47.798;12.472;2023-08-12T02:12:49;16.59;83.26
72380;SHT30;60354;47.798;12.472;2023-08-12T02:15:15;16.66;82.91
72380;SHT30;60354;47.798;12.472;2023-08-12T02:17:40;16.42;83.94
72380;SHT30;60354;47.798;12.472;2023-08-12T02:20:07;16.52;83.35
72380;SHT30;60354;47.798;12.472;2023-08-12T02:22:32;16.42;83.38
72380;SHT30;60354;47.798;12.472;2023-08-12T02:24:58;16.41;83.51
72380;SHT30;60354;47.798;12.472;2023-08-12T02:27:23;16.44;83.37
72380;SHT30;60354;47.798;12.472;2023-08-12T02:29:50;16.42;83.41
72380;SHT30;60354;47.798;12.472;2023-08-12T02:32:15;16.49;83.12
72380;SHT30;60354;47.798;12.472;2023-08-12T02:34:41;16.56;82.75
72380;SHT30;60354;47.798;12.472;2023-08-12T02:37:09;16.61;82.49
72380;SHT30;60354;47.798;12.472;2023-08-12T02:39:35;16.64;82.52
72380;SHT30;60354;47.798;12.472;2023-08-12T02:42:00;16.75;81.68
72380;SHT30;60354;47.798;12.472;2023-08-12T02:44:26;16.89;80.98
72380;SHT30;60354;47.798;12.472;2023-08-12T02:46:51;16.97;80.84
72380;SHT30;60354;47.798;12.472;2023-08-12T02:49:17;17.06;80.27
72380;SHT30;60354;47.798;12.472;2023-08-12T02:51:43;17.12;80.20
72380;SHT30;60354;47.798;12.472;2023-08-12T02:54:08;17.15;79.98
72380;SHT30;60354;47.798;12.472;2023-08-12T02:56:34;17.17;79.87
72380;SHT30;60354;47.798;12.472;2023-08-12T02:58:59;17.24;79.51
72380;SHT30;60354;47.798;12.472;2023-08-12T03:01:25;17.30;79.43
72380;SHT30;60354;47.798;12.472;2023-08-12T03:03:50;17.34;79.19
72380;SHT30;60354;47.798;12.472;2023-08-12T03:06:16;17.31;79.24
72380;SHT30;60354;47.798;12.472;2023-08-12T03:08:41;17.30;79.18
72380;SHT30;60354;47.798;12.472;2023-08-12T03:11:08;17.27;79.48
72380;SHT30;60354;47.798;12.472;2023-08-12T03:13:33;17.26;79.47
72380;SHT30;60354;47.798;12.472;2023-08-12T03:15:59;17.31;79.40
72380;SHT30;60354;47.798;12.472;2023-08-12T03:18:25;17.31;79.06
72380;SHT30;60354;47.798;12.472;2023-08-12T03:20:50;17.33;78.97
72380;SHT30;60354;47.798;12.472;2023-08-12T03:23:17;17.36;78.55
72380;SHT30;60354;47.798;12.472;2023-08-12T03:25:43;17.37;78.59
72380;SHT30;60354;47.798;12.472;2023-08-12T03:28:08;17.38;78.43
72380;SHT30;60354;47.798;12.472;2023-08-12T03:30:35;17.44;78.36
72380;SHT30;60354;47.798;12.472;2023-08-12T03:33:00;17.46;78.24
72380;SHT30;60354;47.798;12.472;2023-08-12T03:35:30;17.47;78.22
72380;SHT30;60354;47.798;12.472;2023-08-12T03:37:55;17.43;78.35
72380;SHT30;60354;47.798;12.472;2023-08-12T03:40:22;17.43;78.37
72380;SHT30;60354;47.798;12.472;2023-08-12T03:42:48;17.48;78.17
72380;SHT30;60354;47.798;12.472;2023-08-12T03:45:14;17.48;78.18
72380;SHT30;60354;47.798;12.472;2023-08-12T03:47:40;17.44;78.34
72380;SHT30;60354;47.798;12.472;2023-08-12T03:50:06;17.50;77.71
72380;SHT30;60354;47.798;12.472;2023-08-12T03:52:32;17.55;77.30
72380;SHT30;60354;47.798;12.472;2023-08-12T03:54:57;17.54;77.79
72380;SHT30;60354;47.798;12.472;2023-08-12T03:57:23;17.48;77.79
72380;SHT30;60354;47.798;12.472;2023-08-12T03:59:49;17.50;77.67
72380;SHT30;60354;47.798;12.472;2023-08-12T04:02:15;17.54;77.41
72380;SHT30;60354;47.798;12.472;2023-08-12T04:04:40;17.48;77.44
72380;SHT30;60354;47.798;12.472;2023-08-12T04:07:08;17.54;77.38
72380;SHT30;60354;47.798;12.472;2023-08-12T04:09:33;17.53;77.32
72380;SHT30;60354;47.798;12.472;2023-08-12T04:11:59;17.48;77.63
72380;SHT30;60354;47.798;12.472;2023-08-12T04:14:24;17.44;77.57
72380;SHT30;60354;47.798;12.472;2023-08-12T04:16:50;17.44;77.58
72380;SHT30;60354;47.798;12.472;2023-08-12T04:19:16;17.50;77.08
72380;SHT30;60354;47.798;12.472;2023-08-12T04:21:42;17.63;76.37
72380;SHT30;60354;47.798;12.472;2023-08-12T04:24:11;17.68;76.23
72380;SHT30;60354;47.798;12.472;2023-08-12T04:26:37;17.73;76.03
72380;SHT30;60354;47.798;12.472;2023-08-12T04:29:03;17.70;76.14
72380;SHT30;60354;47.798;12.472;2023-08-12T04:31:29;17.68;76.36
72380;SHT30;60354;47.798;12.472;2023-08-12T04:33:55;17.70;76.36
72380;SHT30;60354;47.798;12.472;2023-08-12T04:36:23;17.71;75.88
72380;SHT30;60354;47.798;12.472;2023-08-12T04:38:50;17.70;75.90
72380;SHT30;60354;47.798;12.472;2023-08-12T04:41:16;17.73;75.78
72380;SHT30;60354;47.798;12.472;2023-08-12T04:43:42;17.84;75.36
72380;SHT30;60354;47.798;12.472;2023-08-12T04:46:08;17.85;75.33
72380;SHT30;60354;47.798;12.472;2023-08-12T04:48:34;17.87;75.37
72380;SHT30;60354;47.798;12.472;2023-08-12T04:51:00;17.91;75.21
72380;SHT30;60354;47.798;12.472;2023-08-12T04:53:27;17.95;75.03
72380;SHT30;60354;47.798;12.472;2023-08-12T04:55:55;17.92;75.19
72380;SHT30;60354;47.798;12.472;2023-08-12T04:58:22;17.97;74.76
72380;SHT30;60354;47.798;12.472;2023-08-12T05:00:48;18.04;74.56
72380;SHT30;60354;47.798;12.472;2023-08-12T05:03:13;18.05;74.65
72380;SHT30;60354;47.798;12.472;2023-08-12T05:05:39;18.09;74.63
72380;SHT30;60354;47.798;12.472;2023-08-12T05:08:05;18.09;74.60
72380;SHT30;60354;47.798;12.472;2023-08-12T05:10:32;18.12;74.70
72380;SHT30;60354;47.798;12.472;2023-08-12T05:12:58;18.13;74.72
72380;SHT30;60354;47.798;12.472;2023-08-12T05:15:25;18.21;74.38
72380;SHT30;60354;47.798;12.472;2023-08-12T05:17:50;18.24;74.13
72380;SHT30;60354;47.798;12.472;2023-08-12T05:20:19;18.29;73.73
72380;SHT30;60354;47.798;12.472;2023-08-12T05:22:44;18.36;73.52
72380;SHT30;60354;47.798;12.472;2023-08-12T05:25:10;18.46;72.84
72380;SHT30;60354;47.798;12.472;2023-08-12T05:27:36;18.52;72.79
72380;SHT30;60354;47.798;12.472;2023-08-12T05:30:01;18.56;72.83
72380;SHT30;60354;47.798;12.472;2023-08-12T05:32:27;18.52;73.45
72380;SHT30;60354;47.798;12.472;2023-08-12T05:34:53;18.55;73.30
72380;SHT30;60354;47.798;12.472;2023-08-12T05:37:18;18.56;73.41
72380;SHT30;60354;47.798;12.472;2023-08-12T05:39:44;18.55;73.40
72380;SHT30;60354;47.798;12.472;2023-08-12T05:42:09;18.59;73.54
72380;SHT30;60354;47.798;12.472;2023-08-12T05:44:35;18.67;73.31
72380;SHT30;60354;47.798;12.472;2023-08-12T05:47:00;18.81;73.05
72380;SHT30;60354;47.798;12.472;2023-08-12T05:49:25;19.00;72.24
72380;SHT30;60354;47.798;12.472;2023-08-12T05:51:51;19.27;71.20
72380;SHT30;60354;47.798;12.472;2023-08-12T05:54:16;19.58;70.37
72380;SHT30;60354;47.798;12.472;2023-08-12T05:56:42;19.89;69.00
72380;SHT30;60354;47.798;12.472;2023-08-12T05:59:07;20.21;68.00
72380;SHT30;60354;47.798;12.472;2023-08-12T06:01:33;20.43;67.12
72380;SHT30;60354;47.798;12.472;2023-08-12T06:03:58;20.65;66.77
72380;SHT30;60354;47.798;12.472;2023-08-12T06:06:24;20.88;66.43
72380;SHT30;60354;47.798;12.472;2023-08-12T06:08:49;21.12;66.34
72380;SHT30;60354;47.798;12.472;2023-08-12T06:11:15;21.27;65.81
72380;SHT30;60354;47.798;12.472;2023-08-12T06:13:40;21.43;64.98
72380;SHT30;60354;47.798;12.472;2023-08-12T06:16:06;21.64;64.55
72380;SHT30;60354;47.798;12.472;2023-08-12T06:18:32;21.81;63.59
72380;SHT30;60354;47.798;12.472;2023-08-12T06:20:58;21.88;63.00
72380;SHT30;60354;47.798;12.472;2023-08-12T06:23:24;22.14;62.70
72380;SHT30;60354;47.798;12.472;2023-08-12T06:25:49;22.18;61.96
72380;SHT30;60354;47.798;12.472;2023-08-12T06:28:14;22.31;61.95
72380;SHT30;60354;47.798;12.472;2023-08-12T06:30:40;22.32;61.59
72380;SHT30;60354;47.798;12.472;2023-08-12T06:33:05;22.69;61.59
72380;SHT30;60354;47.798;12.472;2023-08-12T06:35:31;22.86;61.11
72380;SHT30;60354;47.798;12.472;2023-08-12T06:37:56;22.92;60.18
72380;SHT30;60354;47.798;12.472;2023-08-12T06:40:22;23.17;60.55
72380;SHT30;60354;47.798;12.472;2023-08-12T06:42:47;23.20;59.92
72380;SHT30;60354;47.798;12.472;2023-08-12T06:45:12;23.31;60.49
72380;SHT30;60354;47.798;12.472;2023-08-12T06:47:38;23.37;60.98
72380;SHT30;60354;47.798;12.472;2023-08-12T06:50:04;23.48;60.72
72380;SHT30;60354;47.798;12.472;2023-08-12T06:52:29;23.65;59.65
72380;SHT30;60354;47.798;12.472;2023-08-12T06:54:55;23.72;59.38
72380;SHT30;60354;47.798;12.472;2023-08-12T06:57:20;23.90;60.67
72380;SHT30;60354;47.798;12.472;2023-08-12T06:59:46;23.94;59.30
72380;SHT30;60354;47.798;12.472;2023-08-12T07:02:11;23.99;58.21
72380;SHT30;60354;47.798;12.472;2023-08-12T07:04:37;24.10;58.98
72380;SHT30;60354;47.798;12.472;2023-08-12T07:07:02;24.17;58.22
72380;SHT30;60354;47.798;12.472;2023-08-12T07:09:28;24.30;57.86
72380;SHT30;60354;47.798;12.472;2023-08-12T07:11:53;24.36;58.42
72380;SHT30;60354;47.798;12.472;2023-08-12T07:14:19;24.49;58.00
72380;SHT30;60354;47.798;12.472;2023-08-12T07:16:44;24.68;57.77
72380;SHT30;60354;47.798;12.472;2023-08-12T07:19:09;24.86;57.44
72380;SHT30;60354;47.798;12.472;2023-08-12T07:21:35;24.97;56.32
72380;SHT30;60354;47.798;12.472;2023-08-12T07:24:00;24.97;56.80
72380;SHT30;60354;47.798;12.472;2023-08-12T07:26:26;25.17;58.00
72380;SHT30;60354;47.798;12.472;2023-08-12T07:28:51;25.21;56.82
72380;SHT30;60354;47.798;12.472;2023-08-12T07:31:17;25.38;56.88
72380;SHT30;60354;47.798;12.472;2023-08-12T07:33:43;25.56;57.08
72380;SHT30;60354;47.798;12.472;2023-08-12T07:36:09;25.65;56.12
72380;SHT30;60354;47.798;12.472;2023-08-12T07:38:34;25.80;55.88
72380;SHT30;60354;47.798;12.472;2023-08-12T07:41:00;25.90;55.60
72380;SHT30;60354;47.798;12.472;2023-08-12T07:43:25;26.12;55.60
72380;SHT30;60354;47.798;12.472;2023-08-12T07:45:52;26.13;55.05
72380;SHT30;60354;47.798;12.472;2023-08-12T07:48:18;26.16;55.36
72380;SHT30;60354;47.798;12.472;2023-08-12T07:50:44;26.18;55.48
72380;SHT30;60354;47.798;12.472;2023-08-12T07:53:09;26.34;53.28
72380;SHT30;60354;47.798;12.472;2023-08-12T07:55:35;26.36;53.69
72380;SHT30;60354;47.798;12.472;2023-08-12T07:58:00;26.55;54.28
72380;SHT30;60354;47.798;12.472;2023-08-12T08:00:26;26.67;53.75
72380;SHT30;60354;47.798;12.472;2023-08-12T08:02:51;26.64;53.55
72380;SHT30;60354;47.798;12.472;2023-08-12T08:05:17;26.72;53.25
72380;SHT30;60354;47.798;12.472;2023-08-12T08:07:42;26.85;53.43
72380;SHT30;60354;47.798;12.472;2023-08-12T08:10:08;27.00;52.51
72380;SHT30;60354;47.798;12.472;2023-08-12T08:12:34;27.19;52.85
72380;SHT30;60354;47.798;12.472;2023-08-12T08:14:59;27.29;53.00
72380;SHT30;60354;47.798;12.472;2023-08-12T08:17:25;27.50;52.90
72380;SHT30;60354;47.798;12.472;2023-08-12T08:19:50;27.37;52.66
72380;SHT30;60354;47.798;12.472;2023-08-12T08:22:15;27.51;52.55
72380;SHT30;60354;47.798;12.472;2023-08-12T08:24:41;27.54;51.77
72380;SHT30;60354;47.798;12.472;2023-08-12T08:27:06;27.45;51.36
72380;SHT30;60354;47.798;12.472;2023-08-12T08:29:32;27.50;51.91
72380;SHT30;60354;47.798;12.472;2023-08-12T08:31:58;27.56;53.32
72380;SHT30;60354;47.798;12.472;2023-08-12T08:34:23;27.80;51.15
72380;SHT30;60354;47.798;12.472;2023-08-12T08:36:50;27.84;51.30
72380;SHT30;60354;47.798;12.472;2023-08-12T08:39:15;27.91;50.85
72380;SHT30;60354;47.798;12.472;2023-08-12T08:41:41;28.11;51.13
72380;SHT30;60354;47.798;12.472;2023-08-12T08:44:08;28.21;50.40
72380;SHT30;60354;47.798;12.472;2023-08-12T08:46:34;28.35;50.30
72380;SHT30;60354;47.798;12.472;2023-08-12T08:49:00;28.36;51.39
72380;SHT30;60354;47.798;12.472;2023-08-12T08:51:31;28.38;50.98
72380;SHT30;60354;47.798;12.472;2023-08-12T08:53:57;28.55;51.97
72380;SHT30;60354;47.798;12.472;2023-08-12T08:56:24;28.63;51.27
72380;SHT30;60354;47.798;12.472;2023-08-12T08:58:49;28.65;50.01
72380;SHT30;60354;47.798;12.472;2023-08-12T09:01:17;28.51;51.85
72380;SHT30;60354;47.798;12.472;2023-08-12T09:03:45;28.24;53.20
72380;SHT30;60354;47.798;12.472;2023-08-12T09:06:11;28.39;52.86
72380;SHT30;60354;47.798;12.472;2023-08-12T09:08:40;28.42;53.20
72380;SHT30;60354;47.798;12.472;2023-08-12T09:11:07;28.65;53.48
72380;SHT30;60354;47.798;12.472;2023-08-12T09:13:32;28.82;52.90
72380;SHT30;60354;47.798;12.472;2023-08-12T09:15:58;28.92;50.21
72380;SHT30;60354;47.798;12.472;2023-08-12T09:18:23;29.11;51.54
72380;SHT30;60354;47.798;12.472;2023-08-12T09:20:53;29.28;52.31
72380;SHT30;60354;47.798;12.472;2023-08-12T09:23:19;29.55;51.03
72380;SHT30;60354;47.798;12.472;2023-08-12T09:25:44;29.41;50.95
72380;SHT30;60354;47.798;12.472;2023-08-12T09:28:11;29.59;48.90
72380;SHT30;60354;47.798;12.472;2023-08-12T09:30:38;29.69;48.99
72380;SHT30;60354;47.798;12.472;2023-08-12T09:33:05;29.72;50.05
72380;SHT30;60354;47.798;12.472;2023-08-12T09:35:40;29.88;48.76
72380;SHT30;60354;47.798;12.472;2023-08-12T09:38:10;29.85;49.06
72380;SHT30;60354;47.798;12.472;2023-08-12T09:40:36;30.01;49.15
72380;SHT30;60354;47.798;12.472;2023-08-12T09:43:03;30.09;51.35
72380;SHT30;60354;47.798;12.472;2023-08-12T09:45:30;30.17;49.77
72380;SHT30;60354;47.798;12.472;2023-08-12T09:47:55;30.12;50.32
72380;SHT30;60354;47.798;12.472;2023-08-12T09:50:22;29.82;49.17
72380;SHT30;60354;47.798;12.472;2023-08-12T09:52:48;29.76;50.46
72380;SHT30;60354;47.798;12.472;2023-08-12T09:55:15;29.99;49.72
72380;SHT30;60354;47.798;12.472;2023-08-12T09:57:43;30.12;49.17
72380;SHT30;60354;47.798;12.472;2023-08-12T10:00:11;30.33;49.29
72380;SHT30;60354;47.798;12.472;2023-08-12T10:02:43;30.36;48.36
72380;SHT30;60354;47.798;12.472;2023-08-12T10:05:11;30.60;48.44
72380;SHT30;60354;47.798;12.472;2023-08-12T10:07:38;30.50;48.18
72380;SHT30;60354;47.798;12.472;2023-08-12T10:10:05;30.70;48.49
72380;SHT30;60354;47.798;12.472;2023-08-12T10:12:33;30.74;47.71
72380;SHT30;60354;47.798;12.472;2023-08-12T10:15:00;30.77;46.66
72380;SHT30;60354;47.798;12.472;2023-08-12T10:17:25;30.50;46.80
72380;SHT30;60354;47.798;12.472;2023-08-12T10:19:55;30.81;47.56
72380;SHT30;60354;47.798;12.472;2023-08-12T10:22:25;31.07;48.24
72380;SHT30;60354;47.798;12.472;2023-08-12T10:24:51;30.90;46.15
72380;SHT30;60354;47.798;12.472;2023-08-12T10:27:18;31.07;45.27
72380;SHT30;60354;47.798;12.472;2023-08-12T10:29:43;31.29;45.34
72380;SHT30;60354;47.798;12.472;2023-08-12T10:32:09;31.39;47.13
72380;SHT30;60354;47.798;12.472;2023-08-12T10:34:34;31.47;46.78
72380;SHT30;60354;47.798;12.472;2023-08-12T10:37:03;31.05;47.17
72380;SHT30;60354;47.798;12.472;2023-08-12T10:39:31;31.22;47.40
72380;SHT30;60354;47.798;12.472;2023-08-12T10:41:57;31.26;48.50
72380;SHT30;60354;47.798;12.472;2023-08-12T10:44:38;31.35;47.07
72380;SHT30;60354;47.798;12.472;2023-08-12T10:47:08;31.45;47.99
72380;SHT30;60354;47.798;12.472;2023-08-12T10:49:38;31.25;48.83
72380;SHT30;60354;47.798;12.472;2023-08-12T10:52:04;31.11;48.11
72380;SHT30;60354;47.798;12.472;2023-08-12T10:54:30;31.38;47.99
72380;SHT30;60354;47.798;12.472;2023-08-12T11:02:31;31.18;51.81
72380;SHT30;60354;47.798;12.472;2023-08-12T11:05:03;30.95;51.55
72380;SHT30;60354;47.798;12.472;2023-08-12T11:12:35;30.75;50.80
72380;SHT30;60354;47.798;12.472;2023-08-12T11:15:03;30.44;51.96
72380;SHT30;60354;47.798;12.472;2023-08-12T11:17:55;30.40;50.78
72380;SHT30;60354;47.798;12.472;2023-08-12T11:20:21;30.23;51.59
72380;SHT30;60354;47.798;12.472;2023-08-12T11:22:46;29.86;51.80
72380;SHT30;60354;47.798;12.472;2023-08-12T11:25:13;29.93;51.00
72380;SHT30;60354;47.798;12.472;2023-08-12T11:27:42;30.01;50.36
72380;SHT30;60354;47.798;12.472;2023-08-12T11:30:13;29.85;50.86
72380;SHT30;60354;47.798;12.472;2023-08-12T11:32:44;30.20;52.11
72380;SHT30;60354;47.798;12.472;2023-08-12T11:35:11;30.32;51.67
72380;SHT30;60354;47.798;12.472;2023-08-12T11:37:38;30.10;52.51
72380;SHT30;60354;47.798;12.472;2023-08-12T11:40:05;30.40;53.32
72380;SHT30;60354;47.798;12.472;2023-08-12T11:42:34;30.54;52.22
72380;SHT30;60354;47.798;12.472;2023-08-12T11:44:59;30.53;52.83
72380;SHT30;60354;47.798;12.472;2023-08-12T11:47:25;30.75;52.09
72380;SHT30;60354;47.798;12.472;2023-08-12T11:49:52;30.75;51.13
72380;SHT30;60354;47.798;12.472;2023-08-12T11:52:18;30.61;52.25
72380;SHT30;60354;47.798;12.472;2023-08-12T11:54:44;30.92;51.90
72380;SHT30;60354;47.798;12.472;2023-08-12T11:57:10;31.04;51.69
72380;SHT30;60354;47.798;12.472;2023-08-12T11:59:36;31.18;52.39
72380;SHT30;60354;47.798;12.472;2023-08-12T12:02:03;31.10;51.19
72380;SHT30;60354;47.798;12.472;2023-08-12T12:04:32;31.12;51.52
72380;SHT30;60354;47.798;12.472;2023-08-12T12:06:58;30.94;50.05
72380;SHT30;60354;47.798;12.472;2023-08-12T12:09:25;30.74;51.53
72380;SHT30;60354;47.798;12.472;2023-08-12T12:11:54;30.70;51.17
72380;SHT30;60354;47.798;12.472;2023-08-12T12:14:20;30.84;51.21
72380;SHT30;60354;47.798;12.472;2023-08-12T12:16:47;30.57;52.21
72380;SHT30;60354;47.798;12.472;2023-08-12T12:19:23;30.32;51.20
72380;SHT30;60354;47.798;12.472;2023-08-12T12:21:50;30.46;51.77
72380;SHT30;60354;47.798;12.472;2023-08-12T12:24:16;30.52;52.32
72380;SHT30;60354;47.798;12.472;2023-08-12T12:26:43;30.43;52.47
72380;SHT30;60354;47.798;12.472;2023-08-12T12:29:09;30.39;52.66
72380;SHT30;60354;47.798;12.472;2023-08-12T12:31:37;30.27;52.56
72380;SHT30;60354;47.798;12.472;2023-08-12T12:34:03;30.41;52.63
72380;SHT30;60354;47.798;12.472;2023-08-12T12:36:34;30.35;53.10
72380;SHT30;60354;47.798;12.472;2023-08-12T12:38:59;30.12;52.03
72380;SHT30;60354;47.798;12.472;2023-08-12T12:41:25;29.93;52.95
72380;SHT30;60354;47.798;12.472;2023-08-12T12:43:50;29.95;52.02
72380;SHT30;60354;47.798;12.472;2023-08-12T12:46:16;29.98;49.91
72380;SHT30;60354;47.798;12.472;2023-08-12T12:48:42;29.75;50.25
72380;SHT30;60354;47.798;12.472;2023-08-12T12:51:08;30.09;50.93
72380;SHT30;60354;47.798;12.472;2023-08-12T12:53:34;30.40;51.48
72380;SHT30;60354;47.798;12.472;2023-08-12T12:55:59;30.54;49.88
72380;SHT30;60354;47.798;12.472;2023-08-12T12:58:36;30.61;50.50
72380;SHT30;60354;47.798;12.472;2023-08-12T13:01:02;30.78;50.21
72380;SHT30;60354;47.798;12.472;2023-08-12T13:03:29;30.71;49.09
72380;SHT30;60354;47.798;12.472;2023-08-12T13:05:55;30.88;49.71
72380;SHT30;60354;47.798;12.472;2023-08-12T13:08:21;30.95;49.13
72380;SHT30;60354;47.798;12.472;2023-08-12T13:10:47;31.10;50.21
72380;SHT30;60354;47.798;12.472;2023-08-12T13:13:16;31.15;50.47
72380;SHT30;60354;47.798;12.472;2023-08-12T13:15:43;31.10;49.22
72380;SHT30;60354;47.798;12.472;2023-08-12T13:18:08;30.97;50.15
72380;SHT30;60354;47.798;12.472;2023-08-12T13:20:35;31.01;50.29
72380;SHT30;60354;47.798;12.472;2023-08-12T13:23:00;30.77;50.46
72380;SHT30;60354;47.798;12.472;2023-08-12T13:25:29;30.67;50.67
72380;SHT30;60354;47.798;12.472;2023-08-12T13:27:55;30.88;52.09
72380;SHT30;60354;47.798;12.472;2023-08-12T13:30:21;30.87;51.06
72380;SHT30;60354;47.798;12.472;2023-08-12T13:32:46;30.85;50.74
72380;SHT30;60354;47.798;12.472;2023-08-12T13:35:12;30.80;50.19
72380;SHT30;60354;47.798;12.472;2023-08-12T13:37:37;30.81;48.78
72380;SHT30;60354;47.798;12.472;2023-08-12T13:40:03;30.73;48.88
72380;SHT30;60354;47.798;12.472;2023-08-12T13:42:29;30.63;49.14
72380;SHT30;60354;47.798;12.472;2023-08-12T13:44:54;30.63;49.16
72380;SHT30;60354;47.798;12.472;2023-08-12T13:47:21;30.68;49.34
72380;SHT30;60354;47.798;12.472;2023-08-12T13:49:46;30.74;48.79
72380;SHT30;60354;47.798;12.472;2023-08-12T13:52:12;30.78;49.60
72380;SHT30;60354;47.798;12.472;2023-08-12T13:54:37;30.73;50.25
72380;SHT30;60354;47.798;12.472;2023-08-12T13:57:03;30.84;50.34
72380;SHT30;60354;47.798;12.472;2023-08-12T13:59:29;30.91;50.48
72380;SHT30;60354;47.798;12.472;2023-08-12T14:01:55;30.85;51.98
72380;SHT30;60354;47.798;12.472;2023-08-12T14:04:20;31.04;51.96
72380;SHT30;60354;47.798;12.472;2023-08-12T14:06:46;30.94;50.49
72380;SHT30;60354;47.798;12.472;2023-08-12T14:09:11;30.78;50.01
72380;SHT30;60354;47.798;12.472;2023-08-12T14:11:39;30.83;49.97
72380;SHT30;60354;47.798;12.472;2023-08-12T14:14:05;30.78;50.11
72380;SHT30;60354;47.798;12.472;2023-08-12T14:16:31;30.77;50.46
72380;SHT30;60354;47.798;12.472;2023-08-12T14:18:56;30.94;50.13
72380;SHT30;60354;47.798;12.472;2023-08-12T14:21:22;31.04;48.86
72380;SHT30;60354;47.798;12.472;2023-08-12T14:23:47;30.85;49.99
72380;SHT30;60354;47.798;12.472;2023-08-12T14:26:12;30.70;49.72
72380;SHT30;60354;47.798;12.472;2023-08-12T14:28:38;30.68;48.77
72380;SHT30;60354;47.798;12.472;2023-08-12T14:31:03;30.73;49.88
72380;SHT30;60354;47.798;12.472;2023-08-12T14:33:29;30.71;50.76
72380;SHT30;60354;47.798;12.472;2023-08-12T14:36:01;30.71;50.18
72380;SHT30;60354;47.798;12.472;2023-08-12T14:38:26;30.70;49.83
72380;SHT30;60354;47.798;12.472;2023-08-12T14:40:52;30.80;49.00
72380;SHT30;60354;47.798;12.472;2023-08-12T14:43:17;30.73;50.40
72380;SHT30;60354;47.798;12.472;2023-08-12T14:45:46;30.70;49.94
72380;SHT30;60354;47.798;12.472;2023-08-12T14:48:12;30.71;49.33
72380;SHT30;60354;47.798;12.472;2023-08-12T14:50:38;30.68;50.28
72380;SHT30;60354;47.798;12.472;2023-08-12T14:53:04;30.68;50.30
72380;SHT30;60354;47.798;12.472;2023-08-12T14:55:29;30.61;49.76
72380;SHT30;60354;47.798;12.472;2023-08-12T14:57:55;30.61;50.90
72380;SHT30;60354;47.798;12.472;2023-08-12T15:00:20;30.68;49.09
72380;SHT30;60354;47.798;12.472;2023-08-12T15:02:46;30.53;49.40
72380;SHT30;60354;47.798;12.472;2023-08-12T15:05:11;30.47;49.63
72380;SHT30;60354;47.798;12.472;2023-08-12T15:07:37;30.50;50.94
72380;SHT30;60354;47.798;12.472;2023-08-12T15:10:03;30.43;50.29
72380;SHT30;60354;47.798;12.472;2023-08-12T15:12:29;30.35;49.83
72380;SHT30;60354;47.798;12.472;2023-08-12T15:14:55;30.25;50.32
72380;SHT30;60354;47.798;12.472;2023-08-12T15:17:21;30.15;50.43
72380;SHT30;60354;47.798;12.472;2023-08-12T15:19:46;30.13;50.99
72380;SHT30;60354;47.798;12.472;2023-08-12T15:22:12;30.04;50.90
72380;SHT30;60354;47.798;12.472;2023-08-12T15:24:37;29.89;52.57